createdAt,value
2022-12-15T00:02:45.694Z,-5.30
2022-12-15T00:05:31.009Z,-5.30
2022-12-15T00:08:23.944Z,-5.30
2022-12-15T00:11:08.961Z,-5.30
2022-12-15T00:13:54.595Z,-5.40
2022-12-15T00:16:40.082Z,-5.40
2022-12-15T00:19:25.370Z,-5.40
2022-12-15T00:22:10.644Z,-5.40
2022-12-15T00:24:56.122Z,-5.40
2022-12-15T00:27:41.802Z,-5.40
2022-12-15T00:30:28.469Z,-5.30
2022-12-15T00:33:14.133Z,-5.30
2022-12-15T00:35:59.770Z,-5.40
2022-12-15T00:38:44.816Z,-5.60
2022-12-15T00:41:13.617Z,-5.70
2022-12-15T00:43:40.422Z,-5.70
2022-12-15T00:46:26.695Z,-5.60
2022-12-15T00:48:53.531Z,-5.60
2022-12-15T00:51:20.811Z,-5.60
2022-12-15T00:54:06.310Z,-5.60
2022-12-15T00:56:51.861Z,-5.70
2022-12-15T00:59:37.294Z,-5.60
2022-12-15T01:02:22.913Z,-5.70
2022-12-15T01:05:08.577Z,-5.70
2022-12-15T01:07:53.961Z,-5.70
2022-12-15T01:10:39.529Z,-5.80
2022-12-15T01:13:25.105Z,-5.80
2022-12-15T01:16:10.723Z,-5.90
2022-12-15T01:18:56.026Z,-6.00
2022-12-15T01:21:24.841Z,-6.00
2022-12-15T01:23:52.707Z,-6.10
2022-12-15T01:26:20.199Z,-6.00
2022-12-15T01:28:46.973Z,-6.00
2022-12-15T01:31:14.475Z,-6.00
2022-12-15T01:33:43.518Z,-6.10
2022-12-15T01:36:10.774Z,-6.10
2022-12-15T01:38:37.783Z,-6.10
2022-12-15T01:41:10.919Z,-6.10
2022-12-15T01:43:40.191Z,-6.10
2022-12-15T01:46:11.318Z,-6.20
2022-12-15T01:48:57.374Z,-6.20
2022-12-15T01:51:32.814Z,-6.20
2022-12-15T01:54:15.085Z,-6.20
2022-12-15T01:56:45.469Z,-6.30
2022-12-15T01:59:27.187Z,-6.40
2022-12-15T02:01:54.164Z,-6.40
2022-12-15T02:04:23.671Z,-6.50
2022-12-15T02:06:50.697Z,-6.60
2022-12-15T02:09:19.238Z,-6.60
2022-12-15T02:12:10.423Z,-6.70
2022-12-15T02:14:37.110Z,-6.60
2022-12-15T02:17:21.871Z,-6.60
2022-12-15T02:20:17.890Z,-6.60
2022-12-15T02:22:50.517Z,-6.60
2022-12-15T02:25:38.237Z,-6.50
2022-12-15T02:28:10.388Z,-6.50
2022-12-15T02:31:17.402Z,-6.60
2022-12-15T02:34:13.681Z,-6.50
2022-12-15T02:36:45.418Z,-6.60
2022-12-15T02:39:12.910Z,-6.60
2022-12-15T02:41:46.085Z,-6.50
2022-12-15T02:44:19.522Z,-6.50
2022-12-15T02:47:15.943Z,-6.50
2022-12-15T02:50:00.992Z,-6.60
2022-12-15T02:53:07.464Z,-6.60
2022-12-15T02:55:50.362Z,-6.70
2022-12-15T02:58:23.788Z,-6.80
2022-12-15T03:01:01.141Z,-6.70
2022-12-15T03:03:31.233Z,-6.80
2022-12-15T03:05:58.328Z,-6.70
2022-12-15T03:08:25.111Z,-6.80
2022-12-15T03:10:53.268Z,-6.80
2022-12-15T03:13:20.162Z,-6.80
2022-12-15T03:15:46.984Z,-6.90
2022-12-15T03:18:13.809Z,-6.90
2022-12-15T03:20:40.527Z,-6.90
2022-12-15T03:23:07.485Z,-6.90
2022-12-15T03:25:34.417Z,-6.90
2022-12-15T03:28:01.219Z,-6.90
2022-12-15T03:30:28.013Z,-7.10
2022-12-15T03:32:54.780Z,-7.10
2022-12-15T03:35:21.720Z,-7.10
2022-12-15T03:37:48.607Z,-7.10
2022-12-15T03:40:16.842Z,-7.20
2022-12-15T03:42:49.607Z,-7.10
2022-12-15T03:45:24.683Z,-7.10
2022-12-15T03:47:52.388Z,-7.20
2022-12-15T03:50:25.319Z,-7.30
2022-12-15T03:52:54.097Z,-7.30
2022-12-15T03:55:21.754Z,-7.40
2022-12-15T03:57:48.587Z,-7.30
2022-12-15T04:00:16.349Z,-7.30
2022-12-15T04:02:43.741Z,-7.30
2022-12-15T04:05:18.587Z,-7.20
2022-12-15T04:07:45.404Z,-7.20
2022-12-15T04:10:12.621Z,-7.20
2022-12-15T04:12:42.444Z,-7.20
2022-12-15T04:15:10.638Z,-7.20
2022-12-15T04:17:37.738Z,-7.20
2022-12-15T04:20:09.387Z,-7.20
2022-12-15T04:22:43.318Z,-7.20
2022-12-15T04:25:31.495Z,-7.10
2022-12-15T04:28:17.050Z,-7.30
2022-12-15T04:31:12.742Z,-7.40
2022-12-15T04:34:03.158Z,-7.40
2022-12-15T04:36:50.143Z,-7.50
2022-12-15T04:39:35.658Z,-7.40
2022-12-15T04:42:21.638Z,-7.40
2022-12-15T04:45:15.512Z,-7.30
2022-12-15T04:48:04.107Z,-7.40
2022-12-15T04:50:49.765Z,-7.40
2022-12-15T04:53:36.977Z,-7.40
2022-12-15T04:56:23.776Z,-7.50
2022-12-15T04:59:09.258Z,-7.50
2022-12-15T05:01:54.803Z,-7.50
2022-12-15T05:04:40.207Z,-7.60
2022-12-15T05:07:25.410Z,-7.50
2022-12-15T05:10:14.893Z,-7.40
2022-12-15T05:13:01.501Z,-7.40
2022-12-15T05:15:47.008Z,-7.40
2022-12-15T05:18:32.712Z,-7.40
2022-12-15T05:21:18.193Z,-7.40
2022-12-15T05:24:03.623Z,-7.30
2022-12-15T05:26:52.731Z,-7.40
2022-12-15T05:29:39.166Z,-7.40
2022-12-15T05:32:07.001Z,-7.50
2022-12-15T05:34:35.439Z,-7.50
2022-12-15T05:37:04.496Z,-7.50
2022-12-15T05:39:31.254Z,-7.50
2022-12-15T05:41:58.005Z,-7.40
2022-12-15T05:44:26.167Z,-7.40
2022-12-15T05:46:53.336Z,-7.40
2022-12-15T05:49:20.333Z,-7.50
2022-12-15T05:51:48.198Z,-7.60
2022-12-15T05:54:18.154Z,-7.50
2022-12-15T05:56:45.477Z,-7.50
2022-12-15T05:59:13.044Z,-7.50
2022-12-15T06:01:40.037Z,-7.40
2022-12-15T06:04:07.489Z,-7.40
2022-12-15T06:06:34.275Z,-7.50
2022-12-15T06:09:01.029Z,-7.50
2022-12-15T06:11:27.915Z,-7.50
2022-12-15T06:13:55.853Z,-7.40
2022-12-15T06:16:24.342Z,-7.50
2022-12-15T06:18:59.444Z,-7.40
2022-12-15T06:21:32.138Z,-7.30
2022-12-15T06:24:00.747Z,-7.40
2022-12-15T06:26:33.786Z,-7.40
2022-12-15T06:29:05.311Z,-7.40
2022-12-15T06:31:33.932Z,-7.40
2022-12-15T06:34:13.165Z,-7.50
2022-12-15T06:36:40.425Z,-7.50
2022-12-15T06:39:10.540Z,-7.50
2022-12-15T06:41:37.825Z,-7.50
2022-12-15T06:44:05.361Z,-7.60
2022-12-15T06:46:33.690Z,-7.50
2022-12-15T06:49:01.097Z,-7.50
2022-12-15T06:51:28.747Z,-7.50
2022-12-15T06:53:56.318Z,-7.50
2022-12-15T06:56:33.104Z,-7.40
2022-12-15T06:59:01.852Z,-7.30
2022-12-15T07:01:29.373Z,-7.20
2022-12-15T07:03:57.010Z,-7.10
2022-12-15T07:06:24.041Z,-7.00
2022-12-15T07:08:56.468Z,-6.90
2022-12-15T07:11:23.282Z,-6.80
2022-12-15T07:13:51.347Z,-6.80
2022-12-15T07:16:18.878Z,-6.70
2022-12-15T07:18:45.782Z,-6.60
2022-12-15T07:21:12.721Z,-6.50
2022-12-15T07:23:54.238Z,-6.40
2022-12-15T07:26:22.436Z,-6.40
2022-12-15T07:28:49.330Z,-6.30
2022-12-15T07:31:16.184Z,-6.20
2022-12-15T07:33:43.549Z,-6.10
2022-12-15T07:36:10.988Z,-6.00
2022-12-15T07:38:38.255Z,-6.00
2022-12-15T07:41:07.427Z,-6.00
2022-12-15T07:43:35.249Z,-5.90
2022-12-15T07:46:02.705Z,-5.80
2022-12-15T07:48:29.918Z,-5.80
2022-12-15T07:51:08.365Z,-5.80
2022-12-15T07:53:37.225Z,-5.70
2022-12-15T07:56:07.891Z,-5.70
2022-12-15T07:58:35.969Z,-5.60
2022-12-15T08:01:08.388Z,-5.60
2022-12-15T08:03:36.209Z,-5.50
2022-12-15T08:06:05.489Z,-5.40
2022-12-15T08:08:33.434Z,-5.50
2022-12-15T08:11:11.604Z,-5.50
2022-12-15T08:16:26.475Z,-5.60
2022-12-15T08:18:53.887Z,-5.70
2022-12-15T08:21:20.613Z,-5.60
2022-12-15T08:23:47.822Z,-5.50
2022-12-15T08:26:16.824Z,-5.50
2022-12-15T08:28:44.618Z,-5.40
2022-12-15T08:31:20.141Z,-5.20
2022-12-15T08:33:47.764Z,-5.20
2022-12-15T08:36:17.540Z,-5.10
2022-12-15T08:38:45.661Z,-5.20
2022-12-15T08:41:16.044Z,-5.20
2022-12-15T08:43:48.060Z,-5.20
2022-12-15T08:46:21.117Z,-5.10
2022-12-15T08:48:48.659Z,-5.10
2022-12-15T08:51:16.324Z,-4.90
2022-12-15T08:53:43.554Z,-4.90
2022-12-15T08:56:13.350Z,-5.00
2022-12-15T08:58:40.517Z,-4.90
2022-12-15T09:01:16.086Z,-4.90
2022-12-15T09:03:47.542Z,-4.90
2022-12-15T09:06:17.860Z,-4.90
2022-12-15T09:08:44.964Z,-4.70
2022-12-15T09:11:17.435Z,-4.70
2022-12-15T09:13:44.472Z,-4.50
2022-12-15T09:16:16.784Z,-4.50
2022-12-15T09:18:45.445Z,-4.70
2022-12-15T09:21:12.998Z,-4.60
2022-12-15T09:23:40.862Z,-4.60
2022-12-15T09:26:09.935Z,-4.60
2022-12-15T09:28:38.242Z,-4.50
2022-12-15T09:31:11.747Z,-4.50
2022-12-15T09:33:39.739Z,-4.30
2022-12-15T09:36:07.778Z,-4.30
2022-12-15T09:38:35.715Z,-4.00
2022-12-15T09:41:13.612Z,-3.90
2022-12-15T09:43:50.793Z,-3.70
2022-12-15T09:46:26.820Z,-3.60
2022-12-15T09:48:55.938Z,-3.70
2022-12-15T09:51:33.339Z,-4.00
2022-12-15T09:54:00.693Z,-3.80
2022-12-15T09:56:42.568Z,-4.00
2022-12-15T09:59:36.811Z,-4.00
2022-12-15T10:02:33.223Z,-4.00
2022-12-15T10:04:59.937Z,-3.70
2022-12-15T10:07:42.282Z,-3.50
2022-12-15T10:10:29.878Z,-3.90
2022-12-15T10:13:02.942Z,-4.10
2022-12-15T10:15:37.921Z,-3.70
2022-12-15T10:18:20.232Z,-3.70
2022-12-15T10:20:48.457Z,-3.60
2022-12-15T10:23:17.721Z,-3.40
2022-12-15T10:25:58.141Z,-3.30
2022-12-15T10:29:09.173Z,-3.40
2022-12-15T10:31:54.311Z,-3.40
2022-12-15T10:34:34.386Z,-3.70
2022-12-15T10:37:01.269Z,-3.80
2022-12-15T10:39:42.606Z,-3.70
2022-12-15T10:42:46.109Z,-3.70
2022-12-15T10:45:35.753Z,-3.60
2022-12-15T10:48:04.053Z,-3.50
2022-12-15T10:50:30.914Z,-3.50
2022-12-15T10:52:57.805Z,-3.40
2022-12-15T10:55:43.026Z,-3.20
2022-12-15T10:58:21.837Z,-2.90
2022-12-15T11:01:05.221Z,-2.90
2022-12-15T11:03:37.986Z,-3.00
2022-12-15T11:06:15.703Z,-2.80
2022-12-15T11:08:44.200Z,-3.20
2022-12-15T11:12:00.945Z,-3.30
2022-12-15T11:14:41.251Z,-3.10
2022-12-15T11:17:08.098Z,-3.00
2022-12-15T11:20:01.971Z,-3.00
2022-12-15T11:22:46.250Z,-3.20
2022-12-15T11:25:34.005Z,-3.00
2022-12-15T11:28:06.864Z,-2.90
2022-12-15T11:30:42.445Z,-2.80
2022-12-15T11:33:10.489Z,-2.80
2022-12-15T11:35:46.361Z,-2.90
2022-12-15T11:38:43.636Z,-3.00
2022-12-15T11:41:50.380Z,-3.30
2022-12-15T11:44:25.041Z,-3.20
2022-12-15T11:46:57.161Z,-3.10
2022-12-15T11:49:26.720Z,-3.10
2022-12-15T11:52:03.588Z,-3.20
2022-12-15T11:54:35.338Z,-3.10
2022-12-15T11:57:20.897Z,-3.20
2022-12-15T12:00:09.225Z,-2.90
2022-12-15T12:03:15.864Z,-2.70
2022-12-15T12:05:59.426Z,-2.70
2022-12-15T12:08:36.350Z,-2.70
2022-12-15T12:11:12.249Z,-2.70
2022-12-15T12:13:46.629Z,-2.70
2022-12-15T12:16:42.023Z,-2.60
2022-12-15T12:19:19.361Z,-2.40
2022-12-15T12:21:50.928Z,-2.20
2022-12-15T12:24:30.854Z,-2.20
2022-12-15T12:27:12.680Z,-2.00
2022-12-15T12:30:14.423Z,-2.10
2022-12-15T12:32:51.442Z,-2.20
2022-12-15T12:35:30.317Z,-2.10
2022-12-15T12:38:05.677Z,-2.40
2022-12-15T12:40:46.884Z,-2.10
2022-12-15T12:43:23.213Z,-2.20
2022-12-15T12:46:04.095Z,-2.10
2022-12-15T12:48:48.540Z,-2.10
2022-12-15T12:51:30.721Z,-2.20
2022-12-15T12:53:59.515Z,-2.30
2022-12-15T12:56:48.664Z,-2.50
2022-12-15T12:59:29.419Z,-2.20
2022-12-15T13:02:31.682Z,-2.10
2022-12-15T13:04:59.978Z,-1.90
2022-12-15T13:07:36.376Z,-1.90
2022-12-15T13:10:09.584Z,-1.90
2022-12-15T13:12:53.565Z,-1.60
2022-12-15T13:15:29.688Z,-1.60
2022-12-15T13:18:12.470Z,-2.00
2022-12-15T13:20:40.309Z,-2.00
2022-12-15T13:23:22.637Z,-2.20
2022-12-15T13:25:59.055Z,-2.10
2022-12-15T13:28:29.427Z,-2.10
2022-12-15T13:31:21.464Z,-2.00
2022-12-15T13:33:52.335Z,-2.20
2022-12-15T13:36:38.232Z,-2.20
2022-12-15T13:39:27.858Z,-2.40
2022-12-15T13:44:57.766Z,-2.20
2022-12-15T13:47:30.736Z,-2.40
2022-12-15T13:50:06.289Z,-2.30
2022-12-15T13:55:37.918Z,-2.10
2022-12-15T13:58:17.383Z,-2.30
2022-12-15T14:00:56.930Z,-2.40
2022-12-15T14:03:24.469Z,-2.50
2022-12-15T14:05:59.985Z,-2.30
2022-12-15T14:08:29.754Z,-2.40
2022-12-15T14:11:00.050Z,-2.30
2022-12-15T14:13:31.387Z,-2.40
2022-12-15T14:16:14.030Z,-2.30
2022-12-15T14:18:43.207Z,-2.10
2022-12-15T14:21:25.703Z,-2.20
2022-12-15T14:24:28.277Z,-2.40
2022-12-15T14:26:43.212Z,-2.40
2022-12-15T14:29:10.580Z,-2.20
2022-12-15T14:31:38.090Z,-2.30
2022-12-15T14:34:18.611Z,-2.40
2022-12-15T14:36:46.150Z,-2.30
2022-12-15T14:39:31.093Z,-2.30
2022-12-15T14:41:59.069Z,-2.50
2022-12-15T14:44:40.071Z,-2.60
2022-12-15T14:47:35.313Z,-2.80
2022-12-15T14:50:03.964Z,-2.80
2022-12-15T14:52:35.671Z,-2.90
2022-12-15T14:55:23.613Z,-3.00
2022-12-15T14:57:52.451Z,-2.90
2022-12-15T15:00:22.943Z,-3.00
2022-12-15T15:02:49.839Z,-2.90
2022-12-15T15:05:28.000Z,-3.00
2022-12-15T15:07:56.764Z,-3.10
2022-12-15T15:10:29.502Z,-3.20
2022-12-15T15:12:56.386Z,-3.20
2022-12-15T15:15:26.640Z,-3.30
2022-12-15T15:17:59.450Z,-3.30
2022-12-15T15:20:29.291Z,-3.40
2022-12-15T15:23:08.102Z,-3.40
2022-12-15T15:25:41.313Z,-3.40
2022-12-15T15:28:20.418Z,-3.50
2022-12-15T15:30:56.027Z,-3.50
2022-12-15T15:33:24.517Z,-3.60
2022-12-15T15:35:56.915Z,-3.80
2022-12-15T15:38:34.887Z,-3.80
2022-12-15T15:41:15.695Z,-3.80
2022-12-15T15:43:43.209Z,-3.90
2022-12-15T15:46:22.557Z,-4.00
2022-12-15T15:48:59.573Z,-4.00
2022-12-15T15:51:27.965Z,-4.00
2022-12-15T15:53:59.929Z,-4.00
2022-12-15T15:56:27.578Z,-4.10
2022-12-15T15:58:54.427Z,-4.20
2022-12-15T16:01:21.177Z,-4.30
2022-12-15T16:03:48.073Z,-4.30
2022-12-15T16:06:20.624Z,-4.30
2022-12-15T16:08:52.073Z,-4.20
2022-12-15T16:11:20.095Z,-4.30
2022-12-15T16:13:47.067Z,-4.30
2022-12-15T16:16:19.705Z,-4.40
2022-12-15T16:18:46.580Z,-4.40
2022-12-15T16:21:15.118Z,-4.50
2022-12-15T16:23:44.610Z,-4.50
2022-12-15T16:26:25.622Z,-4.60
2022-12-15T16:28:52.391Z,-4.60
2022-12-15T16:31:32.774Z,-4.70
2022-12-15T16:34:05.783Z,-4.60
2022-12-15T16:36:33.195Z,-4.60
2022-12-15T16:38:59.964Z,-4.60
2022-12-15T16:41:27.811Z,-4.70
2022-12-15T16:43:54.684Z,-4.80
2022-12-15T16:46:21.493Z,-4.90
2022-12-15T16:48:48.477Z,-4.90
2022-12-15T16:51:46.755Z,-4.80
2022-12-15T16:54:44.841Z,-4.90
2022-12-15T16:57:12.114Z,-4.80
2022-12-15T16:59:38.866Z,-4.90
2022-12-15T17:02:27.973Z,-4.90
2022-12-15T17:04:55.536Z,-5.00
2022-12-15T17:07:23.743Z,-5.00
2022-12-15T17:09:51.076Z,-5.00
2022-12-15T17:12:18.649Z,-5.00
2022-12-15T17:14:46.147Z,-5.10
2022-12-15T17:17:15.492Z,-5.10
2022-12-15T17:19:57.875Z,-5.10
2022-12-15T17:22:29.341Z,-5.20
2022-12-15T17:24:56.113Z,-5.30
2022-12-15T17:27:28.604Z,-5.30
2022-12-15T17:29:56.349Z,-5.40
2022-12-15T17:32:23.194Z,-5.40
2022-12-15T17:34:50.209Z,-5.40
2022-12-15T17:37:17.144Z,-5.50
2022-12-15T17:39:50.792Z,-5.60
2022-12-15T17:42:20.406Z,-5.60
2022-12-15T17:44:48.268Z,-5.60
2022-12-15T17:47:16.572Z,-5.60
2022-12-15T17:49:43.872Z,-5.70
2022-12-15T17:52:19.052Z,-5.60
2022-12-15T17:54:45.927Z,-5.70
2022-12-15T17:57:12.852Z,-5.70
2022-12-15T17:59:39.628Z,-5.60
2022-12-15T18:02:06.699Z,-5.60
2022-12-15T18:04:33.581Z,-5.60
2022-12-15T18:07:02.316Z,-5.60
2022-12-15T18:09:29.824Z,-5.50
2022-12-15T18:11:56.659Z,-5.50
2022-12-15T18:14:23.694Z,-5.40
2022-12-15T18:16:50.638Z,-5.30
2022-12-15T18:19:17.417Z,-5.20
2022-12-15T18:21:44.361Z,-5.30
2022-12-15T18:24:17.045Z,-5.20
2022-12-15T18:26:44.373Z,-5.10
2022-12-15T18:29:18.066Z,-5.10
2022-12-15T18:31:48.196Z,-5.40
2022-12-15T18:34:21.156Z,-5.20
2022-12-15T18:36:48.461Z,-5.40
2022-12-15T18:39:19.584Z,-5.40
2022-12-15T18:41:47.011Z,-5.40
2022-12-15T18:44:23.951Z,-5.40
2022-12-15T18:46:51.048Z,-5.40
2022-12-15T18:49:19.325Z,-5.50
2022-12-15T18:51:46.953Z,-5.60
2022-12-15T18:54:22.839Z,-5.60
2022-12-15T18:56:50.183Z,-5.60
2022-12-15T18:59:19.273Z,-5.60
2022-12-15T19:01:49.602Z,-5.70
2022-12-15T19:04:16.603Z,-5.80
2022-12-15T19:06:44.390Z,-5.80
2022-12-15T19:09:23.225Z,-5.90
2022-12-15T19:12:16.663Z,-6.00
2022-12-15T19:14:45.237Z,-6.00
2022-12-15T19:17:35.775Z,-6.00
2022-12-15T19:20:25.234Z,-6.10
2022-12-15T19:22:52.685Z,-6.20
2022-12-15T19:25:26.712Z,-6.10
2022-12-15T19:28:01.289Z,-6.20
2022-12-15T19:30:31.282Z,-6.20
2022-12-15T19:32:58.125Z,-6.10
2022-12-15T19:35:27.303Z,-6.30
2022-12-15T19:37:57.329Z,-6.30
2022-12-15T19:40:30.643Z,-6.20
2022-12-15T19:42:58.850Z,-6.10
2022-12-15T19:45:27.962Z,-6.20
2022-12-15T19:47:55.302Z,-6.10
2022-12-15T19:50:24.716Z,-6.20
2022-12-15T19:53:01.602Z,-6.20
2022-12-15T19:55:32.802Z,-6.20
2022-12-15T19:58:01.355Z,-6.20
2022-12-15T20:00:28.241Z,-6.20
2022-12-15T20:02:55.882Z,-6.20
2022-12-15T20:05:24.489Z,-6.10
2022-12-15T20:07:54.669Z,-6.20
2022-12-15T20:10:31.963Z,-6.20
2022-12-15T20:13:00.558Z,-6.20
2022-12-15T20:15:27.655Z,-6.30
2022-12-15T20:17:57.776Z,-6.30
2022-12-15T20:20:27.615Z,-6.30
2022-12-15T20:22:57.566Z,-6.40
2022-12-15T20:25:27.924Z,-6.30
2022-12-15T20:27:55.388Z,-6.40
2022-12-15T20:30:25.395Z,-6.40
2022-12-15T20:32:52.398Z,-6.40
2022-12-15T20:35:21.698Z,-6.40
2022-12-15T20:37:49.431Z,-6.40
2022-12-15T20:40:22.581Z,-6.40
2022-12-15T20:42:50.323Z,-6.50
2022-12-15T20:45:19.847Z,-6.50
2022-12-15T20:47:49.228Z,-6.60
2022-12-15T20:50:35.323Z,-6.60
2022-12-15T20:53:02.830Z,-6.50
2022-12-15T20:55:30.211Z,-6.60
2022-12-15T20:57:56.966Z,-6.60
2022-12-15T21:00:23.789Z,-6.60
2022-12-15T21:02:52.103Z,-6.70
2022-12-15T21:05:24.600Z,-6.60
2022-12-15T21:07:52.006Z,-6.70
2022-12-15T21:10:20.147Z,-6.80
2022-12-15T21:12:49.064Z,-7.00
2022-12-15T21:15:19.417Z,-7.10
2022-12-15T21:17:46.942Z,-7.00
2022-12-15T21:20:14.431Z,-7.10
2022-12-15T21:22:41.839Z,-7.20
2022-12-15T21:25:25.835Z,-7.20
2022-12-15T21:27:52.979Z,-7.20
2022-12-15T21:30:22.351Z,-7.10
2022-12-15T21:32:50.353Z,-7.10
2022-12-15T21:35:18.571Z,-7.10
2022-12-15T21:37:48.260Z,-7.10
2022-12-15T21:40:20.543Z,-7.10
2022-12-15T21:42:48.787Z,-7.10
2022-12-15T21:45:17.575Z,-7.20
2022-12-15T21:48:03.380Z,-7.10
2022-12-15T21:50:30.153Z,-7.10
2022-12-15T21:52:56.935Z,-7.20
2022-12-15T21:55:26.854Z,-7.20
2022-12-15T21:57:54.910Z,-7.10
2022-12-15T22:00:22.366Z,-7.10
2022-12-15T22:02:51.282Z,-7.20
2022-12-15T22:05:20.476Z,-7.40
2022-12-15T22:07:48.044Z,-7.40
2022-12-15T22:10:15.500Z,-7.50
2022-12-15T22:12:44.273Z,-7.60
2022-12-15T22:15:24.089Z,-7.50
2022-12-15T22:17:50.884Z,-7.40
2022-12-15T22:20:23.894Z,-7.40
2022-12-15T22:22:51.213Z,-7.50
2022-12-15T22:25:20.493Z,-7.40
2022-12-15T22:27:47.944Z,-7.40
2022-12-15T22:30:28.042Z,-7.30
2022-12-15T22:32:54.890Z,-7.40
2022-12-15T22:35:24.697Z,-7.40
2022-12-15T22:37:56.075Z,-7.40
2022-12-15T22:40:24.198Z,-7.40
2022-12-15T22:42:55.045Z,-7.40
2022-12-15T22:45:24.009Z,-7.40
2022-12-15T22:47:52.390Z,-7.50
2022-12-15T22:50:23.651Z,-7.60
2022-12-15T22:52:50.963Z,-7.60
2022-12-15T22:55:20.464Z,-7.60
2022-12-15T22:57:59.496Z,-7.60
2022-12-15T23:00:26.416Z,-7.60
2022-12-15T23:02:53.370Z,-7.60
2022-12-15T23:05:20.737Z,-7.60
2022-12-15T23:07:47.556Z,-7.70
2022-12-15T23:10:36.542Z,-7.80
2022-12-15T23:13:03.463Z,-7.80
2022-12-15T23:15:50.284Z,-7.80
2022-12-15T23:18:18.507Z,-7.70
2022-12-15T23:20:45.503Z,-7.80
2022-12-15T23:23:12.471Z,-7.80
2022-12-15T23:25:39.213Z,-7.70
2022-12-15T23:28:06.049Z,-7.70
2022-12-15T23:30:32.828Z,-7.70
2022-12-15T23:32:59.827Z,-7.70
2022-12-15T23:35:26.977Z,-7.70
2022-12-15T23:37:53.748Z,-7.70
2022-12-15T23:40:22.287Z,-7.80
2022-12-15T23:42:50.457Z,-7.80
2022-12-15T23:45:18.199Z,-7.90
2022-12-15T23:47:45.136Z,-8.00
2022-12-15T23:50:11.937Z,-7.90
2022-12-15T23:52:38.713Z,-7.80
2022-12-15T23:55:08.040Z,-7.80
2022-12-15T23:57:35.452Z,-7.80
